Pagrindinis puslapis
METAR-TAF:

METAR-TAF

Oro uostai :

Lima, Peru

platuma: 12-00S, ilguma: 077-07W, Aukštis: 12 m

Dabartinis oras

Ataskaita buvo paskelbta 13 minutes, ne 09:00 UTC
Vėjas 6 kt iš Pietų
Temperatūra 14°C
Drėgmė 100%
Slėgis 1013 hPa
Matomumas: 4000 m
Apsiniaukę ne aukštis 500 ft
dulksna, rūkana

METAR: SPJC 250900Z 17006KT 4000 -DZ BR OVC005 14/14 Q1013 NOSIG RMK PPTRZ

Laikas: 04:13 (09:13 UTC)

Prognozė

Ataskaita buvo paskelbta 4 valandos ir 13 minutes, ne 05:00 UTC
Prognozė galioja nuo 25 metu 06 UTC su 26 metu 06 UTC
Vėjas 6 kt iš Pietų
Matomumas: 5000 m
Apsiniaukę ne aukštis 700 ft
dulksna, rūkana
Tapsmas
nuo 25 metu 14 UTC su 25 metu 16 UTC
Vėjas 5 kt iš Vakarų/Pietvakarių
Matomumas: 8000 m
Apsiniaukę ne aukštis 1300 ft
Tapsmas
nuo 25 metu 18 UTC su 25 metu 20 UTC
Matomumas 10 km arba daugiau
Su prošvaistėmis ne aukštis 1700 ft

TAF: SPJC 250500Z 2506/2606 17006KT 5000 DZ BR OVC007 TX17/2519Z TN15/2511Z BECMG 2514/2516 24005KT 8000 NSW OVC013 BECMG 2518/2520 9999 BKN017

Orai ataskaitas ir orų prognozės (METAR, TAF).

turimą stotys yra geltonos ir raudonos taškus žemėlapyje.

Perkelti pele per norėdami pamatyti stoties vardą.

Tada spustelėkite, norėdami matyti oro stebėjimo ir prognozės.

Norėdami pakeisti žemėlapį: spustelėkite ant žalios mygtukų su juodo kryžiaus žemyn,; žalią mygtuką su brūkšneliu, jei norite nutolinti; arba žalių rodyklių gretimoms žemėlapius.


METAR-TAF: